sensor_id;sensor_type;location;lat;lon;timestamp;pressure;altitude;pressure_sealevel;temperature;humidity
69622;BME280;56841;55.964;37.674;2023-02-16T00:01:24;100473.78;;;-2.43;72.17
69622;BME280;56841;55.964;37.674;2023-02-16T00:03:51;100474.88;;;-2.49;72.44
69622;BME280;56841;55.964;37.674;2023-02-16T00:06:18;100471.50;;;-2.51;72.72
69622;BME280;56841;55.964;37.674;2023-02-16T00:08:50;100470.09;;;-2.38;72.29
69622;BME280;56841;55.964;37.674;2023-02-16T00:11:20;100467.06;;;-2.47;72.44
69622;BME280;56841;55.964;37.674;2023-02-16T00:14:09;100468.72;;;-2.46;72.88
69622;BME280;56841;55.964;37.674;2023-02-16T00:16:35;100468.56;;;-2.42;72.76
69622;BME280;56841;55.964;37.674;2023-02-16T00:19:20;100466.28;;;-2.70;73.98
69622;BME280;56841;55.964;37.674;2023-02-16T00:21:47;100465.94;;;-2.62;73.58
69622;BME280;56841;55.964;37.674;2023-02-16T00:24:13;100461.53;;;-2.60;73.06
69622;BME280;56841;55.964;37.674;2023-02-16T00:26:40;100464.06;;;-2.58;73.02
69622;BME280;56841;55.964;37.674;2023-02-16T00:29:13;100459.88;;;-2.61;73.27
69622;BME280;56841;55.964;37.674;2023-02-16T00:31:39;100461.50;;;-2.58;73.01
69622;BME280;56841;55.964;37.674;2023-02-16T00:34:39;100464.84;;;-2.56;72.80
69622;BME280;56841;55.964;37.674;2023-02-16T00:37:10;100462.00;;;-2.50;72.44
69622;BME280;56841;55.964;37.674;2023-02-16T00:39:38;100463.16;;;-2.57;72.65
69622;BME280;56841;55.964;37.674;2023-02-16T00:44:45;100463.69;;;-2.70;72.81
69622;BME280;56841;55.964;37.674;2023-02-16T00:49:52;100460.56;;;-2.57;72.93
69622;BME280;56841;55.964;37.674;2023-02-16T00:52:35;100459.03;;;-2.62;72.90
69622;BME280;56841;55.964;37.674;2023-02-16T00:55:08;100453.78;;;-2.60;73.20
69622;BME280;56841;55.964;37.674;2023-02-16T00:57:37;100450.63;;;-2.67;73.36
69622;BME280;56841;55.964;37.674;2023-02-16T01:00:20;100461.53;;;-2.60;72.82
69622;BME280;56841;55.964;37.674;2023-02-16T01:02:51;100454.09;;;-2.68;73.21
69622;BME280;56841;55.964;37.674;2023-02-16T01:05:19;100457.28;;;-2.61;73.43
69622;BME280;56841;55.964;37.674;2023-02-16T01:07:45;100457.66;;;-2.70;73.17
69622;BME280;56841;55.964;37.674;2023-02-16T01:10:33;100458.88;;;-2.79;73.06
69622;BME280;56841;55.964;37.674;2023-02-16T01:13:18;100446.91;;;-2.81;73.64
69622;BME280;56841;55.964;37.674;2023-02-16T01:15:44;100450.25;;;-3.00;74.14
69622;BME280;56841;55.964;37.674;2023-02-16T01:18:15;100450.25;;;-3.00;74.20
69622;BME280;56841;55.964;37.674;2023-02-16T01:20:42;100460.63;;;-3.01;74.42
69622;BME280;56841;55.964;37.674;2023-02-16T01:23:08;100454.38;;;-2.96;74.19
69622;BME280;56841;55.964;37.674;2023-02-16T01:25:35;100455.03;;;-2.91;74.32
69622;BME280;56841;55.964;37.674;2023-02-16T01:28:02;100455.09;;;-2.92;74.92
69622;BME280;56841;55.964;37.674;2023-02-16T01:30:28;100460.75;;;-2.82;74.16
69622;BME280;56841;55.964;37.674;2023-02-16T01:32:54;100457.44;;;-2.86;74.20
69622;BME280;56841;55.964;37.674;2023-02-16T01:35:23;100451.16;;;-2.80;74.17
69622;BME280;56841;55.964;37.674;2023-02-16T01:37:49;100466.28;;;-2.92;74.33
69622;BME280;56841;55.964;37.674;2023-02-16T01:46:10;100465.09;;;-2.83;74.32
69622;BME280;56841;55.964;37.674;2023-02-16T01:48:37;100470.97;;;-2.79;74.28
69622;BME280;56841;55.964;37.674;2023-02-16T01:51:04;100465.09;;;-2.83;74.58
69622;BME280;56841;55.964;37.674;2023-02-16T01:53:57;100463.69;;;-2.92;75.00
69622;BME280;56841;55.964;37.674;2023-02-16T01:56:35;100465.09;;;-2.83;74.42
69622;BME280;56841;55.964;37.674;2023-02-16T02:01:58;100472.00;;;-2.83;74.92
69622;BME280;56841;55.964;37.674;2023-02-16T02:13:22;100475.41;;;-2.83;74.28
69622;BME280;56841;55.964;37.674;2023-02-16T02:16:16;100471.72;;;-2.77;74.64
69622;BME280;56841;55.964;37.674;2023-02-16T02:18:43;100473.16;;;-2.70;73.85
69622;BME280;56841;55.964;37.674;2023-02-16T02:43:22;100463.94;;;-3.20;75.57
69622;BME280;56841;55.964;37.674;2023-02-16T02:48:34;100474.94;;;-3.15;76.27
69622;BME280;56841;55.964;37.674;2023-02-16T02:54:07;100462.56;;;-3.28;76.02
69622;BME280;56841;55.964;37.674;2023-02-16T02:57:46;100471.09;;;-3.26;76.25
69622;BME280;56841;55.964;37.674;2023-02-16T03:02:56;100464.69;;;-3.62;77.62
69622;BME280;56841;55.964;37.674;2023-02-16T03:05:23;100463.78;;;-3.61;77.99
69622;BME280;56841;55.964;37.674;2023-02-16T03:07:53;100468.88;;;-3.59;77.81
69622;BME280;56841;55.964;37.674;2023-02-16T03:10:25;100468.41;;;-3.69;77.77
69622;BME280;56841;55.964;37.674;2023-02-16T03:13:16;100469.34;;;-3.95;79.07
69622;BME280;56841;55.964;37.674;2023-02-16T03:15:47;100470.47;;;-3.78;79.23
69622;BME280;56841;55.964;37.674;2023-02-16T03:18:14;100470.81;;;-3.64;78.64
69622;BME280;56841;55.964;37.674;2023-02-16T03:21:00;100472.03;;;-3.51;78.29
69622;BME280;56841;55.964;37.674;2023-02-16T03:23:48;100471.31;;;-3.33;77.84
69622;BME280;56841;55.964;37.674;2023-02-16T03:26:34;100471.09;;;-3.26;76.79
69622;BME280;56841;55.964;37.674;2023-02-16T03:29:20;100464.91;;;-3.22;76.45
69622;BME280;56841;55.964;37.674;2023-02-16T03:31:50;100471.69;;;-3.20;76.48
69622;BME280;56841;55.964;37.674;2023-02-16T03:34:18;100472.97;;;-3.30;76.72
69622;BME280;56841;55.964;37.674;2023-02-16T03:36:50;100464.38;;;-3.30;76.89
69622;BME280;56841;55.964;37.674;2023-02-16T03:39:17;100459.84;;;-3.25;76.51
69622;BME280;56841;55.964;37.674;2023-02-16T03:41:51;100465.47;;;-3.14;76.34
69622;BME280;56841;55.964;37.674;2023-02-16T03:44:19;100468.94;;;-3.15;75.73
69622;BME280;56841;55.964;37.674;2023-02-16T03:46:45;100464.03;;;-3.21;75.94
69622;BME280;56841;55.964;37.674;2023-02-16T03:49:14;100462.94;;;-3.16;76.12
69622;BME280;56841;55.964;37.674;2023-02-16T03:51:40;100462.44;;;-3.25;76.28
69622;BME280;56841;55.964;37.674;2023-02-16T03:54:09;100468.41;;;-3.23;76.06
69622;BME280;56841;55.964;37.674;2023-02-16T03:56:35;100466.72;;;-3.24;76.08
69622;BME280;56841;55.964;37.674;2023-02-16T03:59:01;100469.13;;;-3.20;75.87
69622;BME280;56841;55.964;37.674;2023-02-16T04:01:26;100469.03;;;-3.18;75.92
69622;BME280;56841;55.964;37.674;2023-02-16T04:03:52;100468.09;;;-3.16;75.55
69622;BME280;56841;55.964;37.674;2023-02-16T04:06:18;100460.66;;;-3.23;75.72
69622;BME280;56841;55.964;37.674;2023-02-16T04:08:44;100458.38;;;-3.31;75.85
69622;BME280;56841;55.964;37.674;2023-02-16T04:11:09;100455.66;;;-3.28;75.92
69622;BME280;56841;55.964;37.674;2023-02-16T04:13:58;100459.97;;;-3.28;75.74
69622;BME280;56841;55.964;37.674;2023-02-16T04:16:24;100448.75;;;-3.27;75.88
69622;BME280;56841;55.964;37.674;2023-02-16T04:18:49;100458.06;;;-3.23;75.61
69622;BME280;56841;55.964;37.674;2023-02-16T04:21:15;100458.09;;;-3.25;75.64
69622;BME280;56841;55.964;37.674;2023-02-16T04:23:41;100451.09;;;-3.21;75.54
69622;BME280;56841;55.964;37.674;2023-02-16T04:26:07;100455.38;;;-3.20;75.46
69622;BME280;56841;55.964;37.674;2023-02-16T04:28:32;100443.53;;;-3.26;75.71
69622;BME280;56841;55.964;37.674;2023-02-16T04:30:58;100440.94;;;-3.26;75.63
69622;BME280;56841;55.964;37.674;2023-02-16T04:33:24;100443.09;;;-3.37;75.56
69622;BME280;56841;55.964;37.674;2023-02-16T04:35:50;100443.56;;;-3.49;75.99
69622;BME280;56841;55.964;37.674;2023-02-16T04:38:15;100455.53;;;-3.47;76.42
69622;BME280;56841;55.964;37.674;2023-02-16T04:40:41;100451.03;;;-3.42;76.28
69622;BME280;56841;55.964;37.674;2023-02-16T04:43:07;100455.34;;;-3.42;76.25
69622;BME280;56841;55.964;37.674;2023-02-16T04:45:32;100456.25;;;-3.43;76.23
69622;BME280;56841;55.964;37.674;2023-02-16T04:47:58;100453.44;;;-3.37;75.87
69622;BME280;56841;55.964;37.674;2023-02-16T04:50:24;100457.88;;;-3.41;76.29
69622;BME280;56841;55.964;37.674;2023-02-16T04:52:50;100455.94;;;-3.36;76.05
69622;BME280;56841;55.964;37.674;2023-02-16T04:55:16;100453.53;;;-3.40;75.79
69622;BME280;56841;55.964;37.674;2023-02-16T04:57:42;100452.28;;;-3.30;75.53
69622;BME280;56841;55.964;37.674;2023-02-16T05:00:09;100454.69;;;-3.25;75.30
69622;BME280;56841;55.964;37.674;2023-02-16T05:02:36;100454.88;;;-3.30;75.05
69622;BME280;56841;55.964;37.674;2023-02-16T05:05:03;100451.38;;;-3.29;74.94
69622;BME280;56841;55.964;37.674;2023-02-16T05:07:29;100456.66;;;-3.32;74.97
69622;BME280;56841;55.964;37.674;2023-02-16T05:09:55;100455.59;;;-3.26;74.87
69622;BME280;56841;55.964;37.674;2023-02-16T05:12:21;100462.75;;;-3.33;75.39
69622;BME280;56841;55.964;37.674;2023-02-16T05:15:05;100462.50;;;-3.27;75.21
69622;BME280;56841;55.964;37.674;2023-02-16T05:17:31;100460.84;;;-3.28;75.27
69622;BME280;56841;55.964;37.674;2023-02-16T05:19:59;100461.00;;;-3.33;75.71
69622;BME280;56841;55.964;37.674;2023-02-16T05:22:25;100465.09;;;-3.27;75.26
69622;BME280;56841;55.964;37.674;2023-02-16T05:24:53;100467.47;;;-3.22;75.29
69622;BME280;56841;55.964;37.674;2023-02-16T05:27:22;100460.34;;;-3.16;75.10
69622;BME280;56841;55.964;37.674;2023-02-16T05:29:48;100464.03;;;-3.21;75.19
69622;BME280;56841;55.964;37.674;2023-02-16T05:32:13;100462.63;;;-3.30;75.53
69622;BME280;56841;55.964;37.674;2023-02-16T05:34:39;100465.81;;;-3.23;75.43
69622;BME280;56841;55.964;37.674;2023-02-16T05:37:06;100465.94;;;-3.26;75.37
69622;BME280;56841;55.964;37.674;2023-02-16T05:39:32;100460.75;;;-3.26;75.53
69622;BME280;56841;55.964;37.674;2023-02-16T05:41:57;100462.81;;;-3.35;75.47
69622;BME280;56841;55.964;37.674;2023-02-16T05:44:23;100463.28;;;-3.25;75.07
69622;BME280;56841;55.964;37.674;2023-02-16T05:46:49;100466.34;;;-3.15;74.79
69622;BME280;56841;55.964;37.674;2023-02-16T05:49:15;100460.28;;;-3.14;74.65
69622;BME280;56841;55.964;37.674;2023-02-16T05:51:41;100457.44;;;-3.08;74.71
69622;BME280;56841;55.964;37.674;2023-02-16T05:54:07;100459.47;;;-2.94;73.73
69622;BME280;56841;55.964;37.674;2023-02-16T05:56:35;100457.88;;;-2.97;74.11
69622;BME280;56841;55.964;37.674;2023-02-16T05:59:01;100462.06;;;-2.94;74.00
69622;BME280;56841;55.964;37.674;2023-02-16T06:01:27;100469.16;;;-2.77;73.28
69622;BME280;56841;55.964;37.674;2023-02-16T06:03:54;100463.59;;;-2.68;72.80
69622;BME280;56841;55.964;37.674;2023-02-16T06:06:19;100459.22;;;-2.66;72.77
69622;BME280;56841;55.964;37.674;2023-02-16T06:08:45;100459.16;;;-2.65;72.11
69622;BME280;56841;55.964;37.674;2023-02-16T06:11:11;100460.66;;;-2.59;72.81
69622;BME280;56841;55.964;37.674;2023-02-16T06:13:56;100461.81;;;-2.66;72.25
69622;BME280;56841;55.964;37.674;2023-02-16T06:16:28;100463.38;;;-2.62;72.12
69622;BME280;56841;55.964;37.674;2023-02-16T06:18:55;100464.84;;;-2.56;72.31
69622;BME280;56841;55.964;37.674;2023-02-16T06:21:21;100464.53;;;-2.69;72.90
69622;BME280;56841;55.964;37.674;2023-02-16T06:23:47;100458.44;;;-2.68;72.38
69622;BME280;56841;55.964;37.674;2023-02-16T06:26:14;100466.88;;;-2.63;72.16
69622;BME280;56841;55.964;37.674;2023-02-16T06:28:40;100458.69;;;-2.54;72.23
69622;BME280;56841;55.964;37.674;2023-02-16T06:31:06;100452.38;;;-2.47;72.13
69622;BME280;56841;55.964;37.674;2023-02-16T06:33:32;100456.59;;;-2.44;71.48
69622;BME280;56841;55.964;37.674;2023-02-16T06:35:58;100456.72;;;-2.47;71.68
69622;BME280;56841;55.964;37.674;2023-02-16T06:38:24;100459.13;;;-2.43;71.72
69622;BME280;56841;55.964;37.674;2023-02-16T06:40:50;100448.50;;;-2.36;70.99
69622;BME280;56841;55.964;37.674;2023-02-16T06:43:16;100450.25;;;-2.37;70.96
69622;BME280;56841;55.964;37.674;2023-02-16T06:45:42;100452.31;;;-2.25;71.19
69622;BME280;56841;55.964;37.674;2023-02-16T06:48:08;100448.47;;;-2.16;70.90
69622;BME280;56841;55.964;37.674;2023-02-16T06:50:34;100454.91;;;-2.45;71.19
69622;BME280;56841;55.964;37.674;2023-02-16T06:53:00;100452.81;;;-2.17;70.44
69622;BME280;56841;55.964;37.674;2023-02-16T06:55:25;100454.81;;;-2.23;69.97
69622;BME280;56841;55.964;37.674;2023-02-16T06:57:51;100456.69;;;-2.27;70.67
69622;BME280;56841;55.964;37.674;2023-02-16T07:00:17;100451.06;;;-2.16;69.97
69622;BME280;56841;55.964;37.674;2023-02-16T07:02:42;100458.22;;;-2.02;69.35
69622;BME280;56841;55.964;37.674;2023-02-16T07:05:08;100451.69;;;-1.91;68.74
69622;BME280;56841;55.964;37.674;2023-02-16T07:07:35;100455.38;;;-1.96;69.13
69622;BME280;56841;55.964;37.674;2023-02-16T07:10:00;100455.25;;;-1.93;69.22
69622;BME280;56841;55.964;37.674;2023-02-16T07:12:27;100451.81;;;-1.94;69.52
69622;BME280;56841;55.964;37.674;2023-02-16T07:14:53;100445.69;;;-1.72;69.16
69622;BME280;56841;55.964;37.674;2023-02-16T07:17:19;100443.72;;;-1.86;69.05
69622;BME280;56841;55.964;37.674;2023-02-16T07:19:45;100438.88;;;-1.75;68.49
69622;BME280;56841;55.964;37.674;2023-02-16T07:22:10;100446.66;;;-1.56;67.81
69622;BME280;56841;55.964;37.674;2023-02-16T07:24:36;100444.69;;;-1.51;67.15
69622;BME280;56841;55.964;37.674;2023-02-16T07:27:02;100442.19;;;-1.52;67.49
69622;BME280;56841;55.964;37.674;2023-02-16T07:29:30;100444.06;;;-1.56;67.46
69622;BME280;56841;55.964;37.674;2023-02-16T07:31:56;100443.03;;;-1.52;67.18
69622;BME280;56841;55.964;37.674;2023-02-16T07:34:22;100439.16;;;-1.62;67.28
69622;BME280;56841;55.964;37.674;2023-02-16T07:36:48;100436.56;;;-1.62;67.57
69622;BME280;56841;55.964;37.674;2023-02-16T07:39:14;100446.13;;;-1.44;67.38
69622;BME280;56841;55.964;37.674;2023-02-16T07:41:39;100449.19;;;-1.35;66.93
69622;BME280;56841;55.964;37.674;2023-02-16T07:44:07;100442.69;;;-1.63;67.65
69622;BME280;56841;55.964;37.674;2023-02-16T08:20:04;100436.22;;;-1.54;66.64
69622;BME280;56841;55.964;37.674;2023-02-16T08:22:30;100431.09;;;-1.37;66.57
69622;BME280;56841;55.964;37.674;2023-02-16T08:24:57;100438.53;;;-1.29;65.46
69622;BME280;56841;55.964;37.674;2023-02-16T08:27:24;100438.72;;;-1.15;65.35
69622;BME280;56841;55.964;37.674;2023-02-16T08:29:51;100432.97;;;-1.22;65.22
69622;BME280;56841;55.964;37.674;2023-02-16T08:32:18;100431.19;;;-1.02;64.36
69622;BME280;56841;55.964;37.674;2023-02-16T08:34:44;100421.72;;;-1.03;64.32
69622;BME280;56841;55.964;37.674;2023-02-16T08:37:13;100436.81;;;-1.11;64.59
69622;BME280;56841;55.964;37.674;2023-02-16T08:39:39;100433.19;;;-0.90;64.03
69622;BME280;56841;55.964;37.674;2023-02-16T08:42:05;100436.25;;;-0.64;63.67
69622;BME280;56841;55.964;37.674;2023-02-16T08:44:30;100429.22;;;-0.62;63.12
69622;BME280;56841;55.964;37.674;2023-02-16T08:46:59;100431.91;;;-0.64;63.17
69622;BME280;56841;55.964;37.674;2023-02-16T08:49:25;100427.31;;;-0.59;63.36
69622;BME280;56841;55.964;37.674;2023-02-16T08:51:57;100429.63;;;-0.70;63.30
69622;BME280;56841;55.964;37.674;2023-02-16T08:54:28;100428.38;;;-0.63;62.44
69622;BME280;56841;55.964;37.674;2023-02-16T08:56:56;100427.84;;;-0.87;63.36
69622;BME280;56841;55.964;37.674;2023-02-16T08:59:24;100420.31;;;-0.74;62.91
69622;BME280;56841;55.964;37.674;2023-02-16T09:01:50;100422.34;;;-0.98;63.07
69622;BME280;56841;55.964;37.674;2023-02-16T09:04:17;100424.56;;;-0.90;63.16
69622;BME280;56841;55.964;37.674;2023-02-16T09:06:45;100419.66;;;-0.97;63.19
69622;BME280;56841;55.964;37.674;2023-02-16T09:09:11;100427.75;;;-1.03;63.40
69622;BME280;56841;55.964;37.674;2023-02-16T09:11:38;100424.66;;;-0.92;62.38
69622;BME280;56841;55.964;37.674;2023-02-16T09:14:04;100423.44;;;-0.85;61.11
69622;BME280;56841;55.964;37.674;2023-02-16T09:16:31;100425.22;;;-1.22;63.16
69622;BME280;56841;55.964;37.674;2023-02-16T09:19:00;100425.34;;;-1.25;63.28
69622;BME280;56841;55.964;37.674;2023-02-16T09:21:27;100419.88;;;-1.18;62.18
69622;BME280;56841;55.964;37.674;2023-02-16T09:23:58;100419.66;;;-0.97;62.14
69622;BME280;56841;55.964;37.674;2023-02-16T09:26:25;100415.88;;;-0.89;61.78
69622;BME280;56841;55.964;37.674;2023-02-16T09:28:51;100418.38;;;-1.05;62.27
69622;BME280;56841;55.964;37.674;2023-02-16T09:31:20;100420.00;;;-0.85;61.59
69622;BME280;56841;55.964;37.674;2023-02-16T09:34:02;100416.72;;;-0.89;61.33
69622;BME280;56841;55.964;37.674;2023-02-16T09:36:28;100419.53;;;-0.76;60.27
69622;BME280;56841;55.964;37.674;2023-02-16T09:38:55;100413.44;;;-0.75;60.67
69622;BME280;56841;55.964;37.674;2023-02-16T09:44:02;100413.59;;;-0.78;60.31
69622;BME280;56841;55.964;37.674;2023-02-16T09:46:32;100415.28;;;-0.77;60.78
69622;BME280;56841;55.964;37.674;2023-02-16T09:49:00;100411.16;;;-0.99;60.76
69622;BME280;56841;55.964;37.674;2023-02-16T09:51:33;100417.63;;;-0.90;60.79
69622;BME280;56841;55.964;37.674;2023-02-16T09:54:23;100417.63;;;-0.90;60.90
69622;BME280;56841;55.964;37.674;2023-02-16T09:57:04;100409.25;;;-0.95;61.15
69622;BME280;56841;55.964;37.674;2023-02-16T09:59:40;100407.72;;;-0.82;60.84
69622;BME280;56841;55.964;37.674;2023-02-16T10:02:23;100405.72;;;-0.77;60.22
69622;BME280;56841;55.964;37.674;2023-02-16T10:05:15;100415.03;;;-0.55;59.73
69622;BME280;56841;55.964;37.674;2023-02-16T10:08:04;100404.59;;;-0.71;60.42
69622;BME280;56841;55.964;37.674;2023-02-16T10:10:52;100416.94;;;-0.76;59.89
69622;BME280;56841;55.964;37.674;2023-02-16T10:15:58;100402.44;;;-0.98;60.38
69622;BME280;56841;55.964;37.674;2023-02-16T10:18:31;100402.59;;;-1.01;59.86
69622;BME280;56841;55.964;37.674;2023-02-16T10:21:01;100401.47;;;-0.95;59.20
69622;BME280;56841;55.964;37.674;2023-02-16T10:26:24;100403.44;;;-1.00;59.06
69622;BME280;56841;55.964;37.674;2023-02-16T10:28:57;100396.00;;;-0.89;57.57
69622;BME280;56841;55.964;37.674;2023-02-16T10:31:35;100399.03;;;-0.98;57.92
69622;BME280;56841;55.964;37.674;2023-02-16T10:34:16;100402.59;;;-1.01;58.14
69622;BME280;56841;55.964;37.674;2023-02-16T10:37:01;100393.75;;;-0.97;58.07
69622;BME280;56841;55.964;37.674;2023-02-16T10:39:55;100395.13;;;-0.89;58.36
69622;BME280;56841;55.964;37.674;2023-02-16T10:45:01;100387.19;;;-1.04;57.34
69622;BME280;56841;55.964;37.674;2023-02-16T10:47:39;100384.34;;;-1.16;58.15
69622;BME280;56841;55.964;37.674;2023-02-16T10:50:32;100386.72;;;-1.12;57.13
69622;BME280;56841;55.964;37.674;2023-02-16T10:53:00;100387.34;;;-1.07;57.03
69622;BME280;56841;55.964;37.674;2023-02-16T10:55:29;100379.22;;;-0.82;56.56
69622;BME280;56841;55.964;37.674;2023-02-16T10:57:57;100387.03;;;-0.66;55.84
69622;BME280;56841;55.964;37.674;2023-02-16T11:00:51;100387.88;;;-0.65;56.30
69622;BME280;56841;55.964;37.674;2023-02-16T11:03:17;100387.44;;;-0.91;56.42
69622;BME280;56841;55.964;37.674;2023-02-16T11:05:48;100394.81;;;-1.18;57.20
69622;BME280;56841;55.964;37.674;2023-02-16T11:08:14;100389.31;;;-1.29;57.38
69622;BME280;56841;55.964;37.674;2023-02-16T11:10:47;100393.09;;;-1.36;57.58
69622;BME280;56841;55.964;37.674;2023-02-16T11:13:30;100387.78;;;-1.33;56.49
69622;BME280;56841;55.964;37.674;2023-02-16T11:16:18;100389.31;;;-1.12;55.93
69622;BME280;56841;55.964;37.674;2023-02-16T11:18:47;100388.38;;;-1.28;56.96
69622;BME280;56841;55.964;37.674;2023-02-16T11:21:20;100382.00;;;-1.04;55.94
69622;BME280;56841;55.964;37.674;2023-02-16T11:23:56;100378.97;;;-1.12;55.72
69622;BME280;56841;55.964;37.674;2023-02-16T11:26:24;100385.00;;;-0.94;55.69
69622;BME280;56841;55.964;37.674;2023-02-16T11:28:51;100382.94;;;-0.87;55.90
69622;BME280;56841;55.964;37.674;2023-02-16T11:31:30;100388.56;;;-0.79;55.42
69622;BME280;56841;55.964;37.674;2023-02-16T11:41:30;100376.38;;;-0.77;55.15
69622;BME280;56841;55.964;37.674;2023-02-16T11:43:58;100374.63;;;-0.94;55.45
69622;BME280;56841;55.964;37.674;2023-02-16T11:46:25;100384.44;;;-0.83;55.29
69622;BME280;56841;55.964;37.674;2023-02-16T11:48:51;100378.03;;;-0.93;55.66
69622;BME280;56841;55.964;37.674;2023-02-16T11:51:34;100372.47;;;-1.03;56.04
69622;BME280;56841;55.964;37.674;2023-02-16T11:54:04;100368.59;;;-0.94;55.78
69622;BME280;56841;55.964;37.674;2023-02-16T11:56:32;100364.47;;;-0.81;55.29
69622;BME280;56841;55.964;37.674;2023-02-16T11:59:18;100366.06;;;-0.79;54.94
69622;BME280;56841;55.964;37.674;2023-02-16T12:07:48;100357.16;;;-0.90;55.70
69622;BME280;56841;55.964;37.674;2023-02-16T12:13:13;100356.56;;;-0.78;55.37
69622;BME280;56841;55.964;37.674;2023-02-16T12:21:36;100353.81;;;-0.75;55.04
69622;BME280;56841;55.964;37.674;2023-02-16T12:26:50;100367.00;;;-0.97;54.98
69622;BME280;56841;55.964;37.674;2023-02-16T12:37:26;100369.28;;;-1.08;54.12
69622;BME280;56841;55.964;37.674;2023-02-16T12:45:19;100377.47;;;-1.35;55.27
69622;BME280;56841;55.964;37.674;2023-02-16T12:50:23;100370.63;;;-1.36;56.45
69622;BME280;56841;55.964;37.674;2023-02-16T12:53:07;100372.59;;;-1.24;57.07
69622;BME280;56841;55.964;37.674;2023-02-16T12:55:49;100379.78;;;-1.48;57.46
69622;BME280;56841;55.964;37.674;2023-02-16T12:58:23;100377.31;;;-1.87;57.36
69622;BME280;56841;55.964;37.674;2023-02-16T13:00:53;100372.75;;;-1.82;57.33
69622;BME280;56841;55.964;37.674;2023-02-16T13:03:49;100369.56;;;-1.87;57.15
69622;BME280;56841;55.964;37.674;2023-02-16T13:06:38;100372.69;;;-1.80;57.34
69622;BME280;56841;55.964;37.674;2023-02-16T13:09:40;100372.63;;;-1.60;57.05
69622;BME280;56841;55.964;37.674;2023-02-16T13:15:12;100371.69;;;-1.40;56.01
69622;BME280;56841;55.964;37.674;2023-02-16T13:17:43;100369.16;;;-1.41;55.65
69622;BME280;56841;55.964;37.674;2023-02-16T13:20:15;100372.03;;;-1.48;56.11
69622;BME280;56841;55.964;37.674;2023-02-16T13:25:34;100377.34;;;-1.51;55.33
69622;BME280;56841;55.964;37.674;2023-02-16T13:28:25;100376.88;;;-1.59;55.40
69622;BME280;56841;55.964;37.674;2023-02-16T13:33:48;100378.78;;;-1.62;56.43
69622;BME280;56841;55.964;37.674;2023-02-16T13:44:27;100371.63;;;-1.95;58.12
69622;BME280;56841;55.964;37.674;2023-02-16T13:46:58;100369.13;;;-1.97;58.10
69622;BME280;56841;55.964;37.674;2023-02-16T13:52:01;100367.66;;;-2.02;58.20
69622;BME280;56841;55.964;37.674;2023-02-16T13:54:33;100364.63;;;-2.12;58.87
69622;BME280;56841;55.964;37.674;2023-02-16T13:57:00;100370.84;;;-2.16;59.83
69622;BME280;56841;55.964;37.674;2023-02-16T14:01:54;100363.66;;;-2.28;59.58
69622;BME280;56841;55.964;37.674;2023-02-16T14:07:19;100364.25;;;-2.42;61.02
69622;BME280;56841;55.964;37.674;2023-02-16T14:09:45;100363.22;;;-2.38;60.48
69622;BME280;56841;55.964;37.674;2023-02-16T14:12:15;100369.44;;;-2.42;60.47
69622;BME280;56841;55.964;37.674;2023-02-16T14:19:56;100375.50;;;-2.84;60.87
69622;BME280;56841;55.964;37.674;2023-02-16T14:22:48;100376.03;;;-2.96;61.29
69622;BME280;56841;55.964;37.674;2023-02-16T14:27:48;100371.31;;;-2.87;61.75
69622;BME280;56841;55.964;37.674;2023-02-16T14:30:21;100380.59;;;-3.03;62.04
69622;BME280;56841;55.964;37.674;2023-02-16T14:35:28;100377.19;;;-3.25;63.15
69622;BME280;56841;55.964;37.674;2023-02-16T14:37:59;100376.31;;;-3.24;63.42
69622;BME280;56841;55.964;37.674;2023-02-16T14:40:39;100393.38;;;-3.42;63.88
69622;BME280;56841;55.964;37.674;2023-02-16T14:43:19;100389.06;;;-3.42;64.13
69622;BME280;56841;55.964;37.674;2023-02-16T14:57:00;100382.63;;;-3.75;66.30
69622;BME280;56841;55.964;37.674;2023-02-16T14:59:42;100377.94;;;-3.66;66.26
69622;BME280;56841;55.964;37.674;2023-02-16T15:02:52;100378.38;;;-3.54;66.64
69622;BME280;56841;55.964;37.674;2023-02-16T15:05:22;100385.91;;;-3.50;66.41
69622;BME280;56841;55.964;37.674;2023-02-16T15:08:18;100382.81;;;-3.58;67.11
69622;BME280;56841;55.964;37.674;2023-02-16T15:10:45;100388.09;;;-3.61;67.31
69622;BME280;56841;55.964;37.674;2023-02-16T15:13:23;100383.41;;;-3.51;66.78
69622;BME280;56841;55.964;37.674;2023-02-16T15:15:52;100384.94;;;-3.69;67.78
69622;BME280;56841;55.964;37.674;2023-02-16T15:18:30;100388.31;;;-3.67;67.45
69622;BME280;56841;55.964;37.674;2023-02-16T15:20:57;100389.25;;;-3.70;68.22
69622;BME280;56841;55.964;37.674;2023-02-16T15:23:29;100394.28;;;-3.65;67.73
69622;BME280;56841;55.964;37.674;2023-02-16T15:25:58;100391.81;;;-3.68;68.22
69622;BME280;56841;55.964;37.674;2023-02-16T15:28:30;100395.72;;;-3.58;68.55
69622;BME280;56841;55.964;37.674;2023-02-16T15:30:59;100391.88;;;-3.48;68.29
69622;BME280;56841;55.964;37.674;2023-02-16T15:33:43;100388.56;;;-3.51;68.47
69622;BME280;56841;55.964;37.674;2023-02-16T15:36:12;100387.66;;;-3.50;68.39
69622;BME280;56841;55.964;37.674;2023-02-16T15:38:41;100395.47;;;-3.52;68.80
69622;BME280;56841;55.964;37.674;2023-02-16T15:41:12;100394.28;;;-3.65;69.53
69622;BME280;56841;55.964;37.674;2023-02-16T15:46:14;100393.78;;;-3.53;69.29
69622;BME280;56841;55.964;37.674;2023-02-16T15:48:47;100394.81;;;-3.57;69.93
69622;BME280;56841;55.964;37.674;2023-02-16T15:51:35;100390.47;;;-3.57;69.77
69622;BME280;56841;55.964;37.674;2023-02-16T15:54:06;100386.72;;;-3.48;69.76
69622;BME280;56841;55.964;37.674;2023-02-16T15:56:44;100390.97;;;-3.47;70.22
69622;BME280;56841;55.964;37.674;2023-02-16T15:59:34;100399.88;;;-3.77;70.65
69622;BME280;56841;55.964;37.674;2023-02-16T16:04:48;100394.91;;;-3.60;70.71
69622;BME280;56841;55.964;37.674;2023-02-16T16:07:18;100393.56;;;-3.69;70.51
69622;BME280;56841;55.964;37.674;2023-02-16T16:09:46;100396.16;;;-3.70;71.04
69622;BME280;56841;55.964;37.674;2023-02-16T16:12:15;100395.84;;;-3.85;70.89